Phoenix, Arizona
Traffic Map
Current Weather Conditions
Phoenix, Arizona
Clear
Clear
34°
Feels Like: 34°
Wind Chill: 34° Ceiling: Unl
Heat Index: 34° Visibility: 10mi
Dew Point: Wind: 9mph
Humidity: 21% Direction: 270° (W)
Pressure: 29.8in Gusts: 0mph
Raw Report DataKPHX 041051Z 27008KT 10SM CLR 34/09 A2980 RMK AO2 SLP067 T03440094
Traffic Incident Summary
Active as of:
Severity:
Category:
InformationThere was an issue retrieving the traffic information for this location. Please try a different location or try again shortly.
Advertisements
Track Severe Weather on mobile